Terminal Aerodrome Forecast
Issued by NWS Greer, SC

Home | Current Version | Previous Version | Text Only | Print | Product List | Glossary On
Versions: 1 2 3 4 5 6 7 8 9 10 11 12 13 14 15 16 17 18 19 20 21 22 23 24 25 26 27 28 29 30 31 32 33 34 35 36 37 38 39 40 41 42 43
000
FTUS42 KGSP 291945 AAA
TAFAVL
TAF AMD
KAVL 291945Z 2920/3018 34005KT P6SM SCT045
      TEMPO 2920/2922 VRB10G17KT 5SM -TSRA OVC045CB
     FM300200 33003KT P6SM OVC250
     FM300900 VRB04KT 4SM BR BKN200
     FM301500 34006KT P6SM FEW250=

USA.gov is the U.S. government's official web portal to all federal, state and local government web resources and services.